Evendale, Ohio
Current Conditions -  °F | °C
As of 7:37 PM on Thursday 18 Dec 2014 (Local Time) from KHAO Reporting Station
Overcast Overcast  
Wind Chill: 29°   Ceiling: 7000
Heat Index: 29°   Visibility: 9mi
Dew Point: 22°   Wind: 3mph
Humidity: 75%   Direction: 290°WNW
Pressure: 30.24"   Gusts: NA
Location:  39.2779°N, 84.4005°W
Report Text: KHAO 190037Z AUTO 29003KT 9SM SCT024 OVC070 M02/M06 A3024 RMK AO2 T10171056
Loading
Personal Weather Stations






























Interactive Weather Map New forecast layout! Learn more

10-Day Weather Forecast

Advertisements
Track Severe Weather on mobile